Time;durP1;ratioP1;P1;durP2;ratioP2;P2;SDS_P1;SDS_P2;PMS_P1;PMS_P2;Temp;Humidity;BMP_temperature;BMP_pressure;BME280_temperature;BME280_humidity;BME280_pressure;Samples;Min_cycle;Max_cycle;Signal;HPM_P1;HPM_P2
2023/11/16 00:02:07;;;;;;;26.05;24.38;;;;;;;11.77;100.00;100798.25;5038227;28;20057;-83
2023/11/16 00:04:34;;;;;;;21.73;20.33;;;;;;;11.87;100.00;100811.94;5032703;28;20053;-82
2023/11/16 00:07:03;;;;;;;23.17;21.67;;;;;;;10.72;100.00;100808.88;5033073;28;20122;-82
2023/11/16 00:09:30;;;;;;;23.60;22.20;;;;;;;11.43;100.00;100820.66;5030796;28;20162;-84
2023/11/16 00:11:57;;;;;;;22.83;21.35;;;;;;;11.29;100.00;100816.41;5033430;28;20125;-82
2023/11/16 00:14:26;;;;;;;28.23;26.63;;;;;;;10.53;100.00;100821.16;5030745;28;20574;-83
2023/11/16 00:16:55;;;;;;;28.52;26.73;;;;;;;10.97;100.00;100819.72;5029781;28;20064;-83
2023/11/16 00:19:23;;;;;;;22.75;21.25;;;;;;;10.96;100.00;100830.56;5032090;28;20053;-82
2023/11/16 00:21:50;;;;;;;23.40;21.80;;;;;;;11.27;100.00;100829.91;5030606;28;20593;-84
2023/11/16 00:24:17;;;;;;;25.80;24.15;;;;;;;11.18;100.00;100837.28;5024874;28;20818;-83
2023/11/16 00:26:44;;;;;;;25.65;24.05;;;;;;;10.78;100.00;100844.47;5031250;28;20110;-83
2023/11/16 00:29:11;;;;;;;26.90;25.10;;;;;;;11.65;100.00;100853.94;5032298;28;20045;-83
2023/11/16 00:31:39;;;;;;;26.42;24.73;;;;;;;11.17;100.00;100848.94;5029557;28;20080;-83
2023/11/16 00:34:06;;;;;;;25.45;23.75;;;;;;;10.85;100.00;100863.06;5028796;28;20037;-84
2023/11/16 00:36:33;;;;;;;26.92;25.02;;;;;;;11.04;100.00;100861.41;5031575;28;20132;-83
2023/11/16 00:39:00;;;;;;;26.35;24.65;;;;;;;10.36;100.00;100859.72;5031396;28;20439;-83
2023/11/16 00:41:27;;;;;;;25.55;23.85;;;;;;;10.48;100.00;100865.25;5033502;28;20045;-84
2023/11/16 00:43:57;;;;;;;24.30;22.70;;;;;;;10.38;100.00;100870.13;5029742;28;20042;-83
2023/11/16 00:46:25;;;;;;;24.85;23.15;;;;;;;10.18;100.00;100867.41;5029674;28;20064;-83
2023/11/16 00:48:54;;;;;;;24.90;23.20;;;;;;;10.73;100.00;100866.31;5033025;28;20076;-83
2023/11/16 00:51:21;;;;;;;24.08;22.48;;;;;;;11.26;100.00;100857.53;5028875;28;20057;-83
2023/11/16 00:53:48;;;;;;;25.40;23.70;;;;;;;10.26;100.00;100872.53;5029901;28;20554;-83
2023/11/16 00:56:17;;;;;;;24.85;23.25;;;;;;;10.72;100.00;100871.84;5028834;28;20049;-83
2023/11/16 00:58:45;;;;;;;23.73;22.13;;;;;;;10.65;100.00;100878.97;5035047;28;20053;-83
2023/11/16 01:01:12;;;;;;;27.00;25.20;;;;;;;10.18;100.00;100870.06;5030271;28;20428;-82
2023/11/16 01:03:41;;;;;;;22.45;20.95;;;;;;;10.24;100.00;100870.06;5030063;28;20045;-83
2023/11/16 01:06:10;;;;;;;24.55;22.85;;;;;;;10.48;100.00;100863.41;5031659;28;20060;-82
2023/11/16 01:08:37;;;;;;;23.50;21.90;;;;;;;10.68;100.00;100870.59;5028982;28;20448;-83
2023/11/16 01:11:05;;;;;;;26.35;24.55;;;;;;;10.54;100.00;100869.78;5029875;28;20049;-83
2023/11/16 01:13:38;;;;;;;23.20;21.60;;;;;;;9.94;100.00;100876.69;5032745;28;20068;-83
2023/11/16 01:16:09;;;;;;;23.15;21.60;;;;;;;10.67;100.00;100866.31;5029629;28;20499;-84
2023/11/16 01:18:38;;;;;;;27.20;25.50;;;;;;;10.02;100.00;100880.00;5031111;28;20586;-83
2023/11/16 01:21:08;;;;;;;24.15;22.55;;;;;;;10.31;100.00;100865.63;5031559;28;20076;-83
2023/11/16 01:23:39;;;;;;;22.73;21.08;;;;;;;10.14;100.00;100879.44;5023583;28;20517;-83
2023/11/16 01:26:13;;;;;;;23.25;21.65;;;;;;;9.94;100.00;100879.34;5030863;28;20498;-83
2023/11/16 01:28:45;;;;;;;26.98;25.27;;;;;;;10.23;100.00;100872.94;5032118;28;20049;-83
2023/11/16 01:31:13;;;;;;;25.10;23.40;;;;;;;10.17;100.00;100876.38;5028873;28;20427;-83
2023/11/16 01:33:42;;;;;;;22.77;21.23;;;;;;;9.96;100.00;100872.84;5027273;28;20052;-82
2023/11/16 01:36:09;;;;;;;21.30;19.70;;;;;;;10.55;100.00;100876.69;5029719;28;20431;-83
2023/11/16 01:38:38;;;;;;;27.48;25.67;;;;;;;10.44;100.00;100891.41;5032989;28;20131;-82
2023/11/16 01:41:06;;;;;;;29.65;27.85;;;;;;;10.06;100.00;100885.72;5029635;28;20651;-83
2023/11/16 01:43:33;;;;;;;26.38;24.67;;;;;;;10.51;100.00;100889.56;5031988;28;20052;-85
2023/11/16 01:46:05;;;;;;;24.35;22.65;;;;;;;10.65;100.00;100878.97;5033355;28;20044;-85
2023/11/16 01:48:34;;;;;;;23.60;21.90;;;;;;;9.81;100.00;100880.94;5029625;28;20045;-83
2023/11/16 01:51:03;;;;;;;23.27;21.58;;;;;;;10.02;100.00;100901.22;5032472;28;20521;-83
2023/11/16 01:53:34;;;;;;;24.52;22.83;;;;;;;9.74;100.00;100889.84;5028806;28;20069;-78
2023/11/16 01:56:04;;;;;;;23.08;21.38;;;;;;;10.75;100.00;100896.16;5031856;28;20142;-78
2023/11/16 01:58:33;;;;;;;22.45;20.75;;;;;;;11.01;100.00;100891.88;5030817;28;20076;-78
2023/11/16 02:01:00;;;;;;;23.23;21.52;;;;;;;9.58;100.00;100898.94;5031843;28;20107;-78
2023/11/16 02:03:27;;;;;;;24.58;22.63;;;;;;;9.93;100.00;100886.50;5028051;28;20057;-78
2023/11/16 02:05:56;;;;;;;22.83;21.15;;;;;;;10.97;100.00;100885.34;5034489;28;20049;-78
2023/11/16 02:08:24;;;;;;;23.40;21.70;;;;;;;10.53;100.00;100892.84;5030920;28;20057;-78
2023/11/16 02:10:52;;;;;;;23.35;21.65;;;;;;;10.03;100.00;100886.13;5031991;28;20837;-78
2023/11/16 02:13:23;;;;;;;24.45;22.75;;;;;;;10.52;100.00;100888.53;5031478;28;20556;-78
2023/11/16 02:15:52;;;;;;;24.42;22.63;;;;;;;9.72;100.00;100898.03;5030106;28;20052;-78
2023/11/16 02:18:18;;;;;;;23.48;21.77;;;;;;;10.41;100.00;100905.09;5032081;28;20056;-78
2023/11/16 02:20:46;;;;;;;26.40;24.60;;;;;;;9.85;100.00;100899.91;5030715;28;20521;-77
2023/11/16 02:23:14;;;;;;;25.90;24.10;;;;;;;9.48;100.00;100903.78;5027348;28;20786;-78
2023/11/16 02:25:45;;;;;;;27.05;25.15;;;;;;;10.27;100.00;100909.53;5032424;28;20055;-78
2023/11/16 02:28:13;;;;;;;24.77;23.08;;;;;;;9.81;100.00;100899.50;5029668;28;20052;-78
2023/11/16 02:30:40;;;;;;;26.10;24.30;;;;;;;10.43;100.00;100910.19;5031572;28;20053;-78
2023/11/16 02:33:07;;;;;;;26.70;24.90;;;;;;;10.33;100.00;100905.25;5028845;28;20546;-77
2023/11/16 02:35:35;;;;;;;24.73;23.02;;;;;;;11.06;100.00;100916.00;5032336;28;20075;-78
2023/11/16 02:38:06;;;;;;;21.48;19.88;;;;;;;9.83;100.00;100916.06;5032297;28;20140;-77
2023/11/16 02:40:35;;;;;;;23.08;21.48;;;;;;;9.76;100.00;100920.47;5035400;28;20053;-78
2023/11/16 02:43:03;;;;;;;27.00;25.20;;;;;;;9.94;100.00;100937.72;5035920;28;20457;-78
2023/11/16 02:45:32;;;;;;;24.75;23.15;;;;;;;10.77;100.00;100941.09;5036371;28;20053;-78
2023/11/16 02:47:59;;;;;;;26.27;24.58;;;;;;;9.19;100.00;100953.31;5033797;28;20124;-78
2023/11/16 02:50:27;;;;;;;24.45;22.85;;;;;;;10.21;100.00;100939.47;5036249;28;20062;-77
2023/11/16 02:52:57;;;;;;;29.48;27.67;;;;;;;9.60;100.00;100942.81;5033483;28;20063;-77
2023/11/16 02:55:27;;;;;;;22.50;20.98;;;;;;;10.50;100.00;100948.22;5033297;28;20057;-78
2023/11/16 02:57:57;;;;;;;28.90;27.10;;;;;;;10.04;100.00;100944.28;5037982;28;20434;-78
2023/11/16 03:00:25;;;;;;;26.30;24.60;;;;;;;10.44;100.00;100938.34;5032412;28;20520;-78
2023/11/16 03:02:53;;;;;;;27.40;25.70;;;;;;;10.03;100.00;100955.94;5032633;28;20041;-78
2023/11/16 03:05:21;;;;;;;24.05;22.63;;;;;;;10.57;100.00;100950.88;5031771;28;20049;-78
2023/11/16 03:07:50;;;;;;;21.77;20.50;;;;;;;10.09;100.00;100957.81;5031311;28;20055;-77
2023/11/16 03:10:17;;;;;;;23.33;21.92;;;;;;;9.66;100.00;100951.84;5031894;28;20063;-78
2023/11/16 03:12:45;;;;;;;20.95;19.65;;;;;;;10.34;100.00;100937.94;5031582;28;20058;-77
2023/11/16 03:15:14;;;;;;;26.77;25.35;;;;;;;9.64;100.00;100953.88;5032541;28;20045;-77
2023/11/16 03:17:43;;;;;;;30.17;28.58;;;;;;;10.51;100.00;100955.97;5034376;28;20486;-78
2023/11/16 03:20:12;;;;;;;27.42;25.77;;;;;;;9.93;100.00;100954.66;5031177;28;20057;-78
2023/11/16 03:22:39;;;;;;;26.50;25.10;;;;;;;10.27;100.00;100959.97;5033306;28;20063;-78
2023/11/16 03:25:08;;;;;;;23.85;22.50;;;;;;;10.10;100.00;100961.28;5025774;28;20049;-78
2023/11/16 03:27:35;;;;;;;23.60;22.30;;;;;;;9.90;100.00;100955.88;5030795;28;20081;-78
2023/11/16 03:30:04;;;;;;;22.63;21.23;;;;;;;9.53;100.00;100968.50;5031945;28;20092;-78
2023/11/16 03:32:33;;;;;;;22.42;21.02;;;;;;;10.28;100.00;100982.00;5032223;28;20435;-78
2023/11/16 03:35:00;;;;;;;22.58;21.17;;;;;;;9.95;100.00;100960.56;5029336;28;20049;-79
2023/11/16 03:37:26;;;;;;;22.83;21.42;;;;;;;8.75;100.00;100980.00;5032852;28;20049;-78
2023/11/16 03:39:53;;;;;;;22.92;21.42;;;;;;;9.99;100.00;100985.72;5031967;28;20037;-77
2023/11/16 03:42:21;;;;;;;22.48;20.98;;;;;;;8.95;100.00;100987.13;5029342;28;20136;-77
2023/11/16 03:44:51;;;;;;;21.92;20.52;;;;;;;9.94;100.00;100998.75;5030376;28;20167;-78
2023/11/16 03:47:18;;;;;;;22.60;21.10;;;;;;;8.86;100.00;101005.97;5029434;28;20053;-78
2023/11/16 03:49:50;;;;;;;21.58;20.08;;;;;;;9.63;100.00;101007.94;5031584;28;20130;-78
2023/11/16 03:52:17;;;;;;;23.58;22.08;;;;;;;9.86;100.00;101031.53;5029578;28;20056;-77
2023/11/16 03:54:44;;;;;;;21.63;20.23;;;;;;;9.44;100.00;101038.56;5029670;28;20045;-78
2023/11/16 03:57:12;;;;;;;22.83;21.30;;;;;;;10.00;100.00;101037.78;5033308;28;20045;-78
2023/11/16 03:59:39;;;;;;;21.88;20.40;;;;;;;9.64;100.00;101036.91;5027752;28;20076;-78
2023/11/16 04:02:06;;;;;;;23.00;21.50;;;;;;;9.33;100.00;101054.97;5032033;28;20046;-78
2023/11/16 04:04:33;;;;;;;20.95;19.65;;;;;;;9.41;100.00;101054.88;5028303;28;20056;-77
2023/11/16 04:07:02;;;;;;;22.42;20.92;;;;;;;10.16;100.00;101040.13;5031355;28;20114;-78
2023/11/16 04:09:30;;;;;;;23.70;22.10;;;;;;;9.83;100.00;101045.19;5031932;28;20118;-78
2023/11/16 04:11:57;;;;;;;21.33;20.02;;;;;;;9.68;100.00;101037.31;5031246;28;20499;-78
2023/11/16 04:14:25;;;;;;;22.48;21.08;;;;;;;10.12;100.00;101038.88;5030695;28;20041;-77
2023/11/16 04:16:53;;;;;;;22.10;20.70;;;;;;;9.73;100.00;101045.53;5030399;28;20063;-78
2023/11/16 04:19:21;;;;;;;22.13;20.73;;;;;;;10.29;100.00;101042.91;5029814;28;20664;-78
2023/11/16 04:21:49;;;;;;;24.20;22.70;;;;;;;10.25;100.00;101049.56;5030315;28;20490;-78
2023/11/16 04:24:19;;;;;;;21.40;20.00;;;;;;;9.67;100.00;101069.34;5025520;28;20037;-78
2023/11/16 04:26:48;;;;;;;22.40;21.10;;;;;;;10.32;100.00;101074.34;5027081;28;20049;-78
2023/11/16 04:29:15;;;;;;;20.48;19.20;;;;;;;8.85;100.00;101081.16;5030018;28;20045;-83
2023/11/16 04:31:44;;;;;;;21.77;20.48;;;;;;;9.11;100.00;101083.31;5031890;28;20107;-81
2023/11/16 04:34:11;;;;;;;20.98;19.67;;;;;;;9.62;100.00;101094.63;5028647;28;20148;-83
2023/11/16 04:36:41;;;;;;;21.73;20.42;;;;;;;8.91;100.00;101093.66;5029518;28;20057;-78
2023/11/16 04:39:08;;;;;;;19.88;18.58;;;;;;;8.81;100.00;101098.44;5030452;28;20056;-83
2023/11/16 04:41:37;;;;;;;19.60;18.30;;;;;;;10.08;100.00;101101.31;5031733;28;20572;-78
2023/11/16 04:44:04;;;;;;;17.20;15.60;;;;;;;8.90;100.00;101103.44;5030790;28;20049;-78
2023/11/16 04:46:31;;;;;;;17.60;15.70;;;;;;;8.89;100.00;101109.72;5030243;28;20057;-83
2023/11/16 04:49:00;;;;;;;24.13;22.02;;;;;;;8.92;100.00;101108.53;5031739;28;20045;-82
2023/11/16 04:51:27;;;;;;;25.23;23.23;;;;;;;9.43;100.00;101113.81;5030044;28;20079;-83
2023/11/16 04:53:53;;;;;;;23.65;21.15;;;;;;;9.59;100.00;101118.88;5032065;28;20443;-82
2023/11/16 04:56:19;;;;;;;22.55;20.55;;;;;;;9.25;100.00;101108.09;5031414;28;20144;-82
2023/11/16 04:58:48;;;;;;;23.90;21.75;;;;;;;10.60;100.00;101112.50;5028429;28;20057;-83
2023/11/16 05:01:16;;;;;;;24.40;21.90;;;;;;;9.07;100.00;101122.59;5026321;28;20053;-83
2023/11/16 05:03:45;;;;;;;27.13;24.55;;;;;;;9.37;100.00;101123.31;5027371;28;20044;-83
2023/11/16 05:06:12;;;;;;;20.85;19.45;;;;;;;8.69;100.00;101132.50;5030649;28;20057;-83
2023/11/16 05:08:40;;;;;;;19.90;18.58;;;;;;;9.14;100.00;101123.50;5029248;28;20083;-83
2023/11/16 05:11:07;;;;;;;18.60;17.23;;;;;;;8.55;100.00;101143.91;5029478;28;20081;-82
2023/11/16 05:13:34;;;;;;;18.35;17.10;;;;;;;8.65;100.00;101145.31;5028497;28;20050;-82
2023/11/16 05:16:03;;;;;;;19.65;18.35;;;;;;;8.81;100.00;101146.13;5030867;28;20045;-82
2023/11/16 05:18:30;;;;;;;18.17;16.88;;;;;;;9.20;100.00;101151.09;5028387;28;20041;-78
2023/11/16 05:21:00;;;;;;;17.88;16.67;;;;;;;8.64;100.00;101148.94;5029479;28;20046;-77
2023/11/16 05:23:27;;;;;;;17.75;16.55;;;;;;;9.15;100.00;101151.63;5027576;28;20144;-82
2023/11/16 05:25:58;;;;;;;18.25;17.08;;;;;;;9.57;100.00;101160.66;5023032;28;20591;-83
2023/11/16 05:28:25;;;;;;;18.20;17.00;;;;;;;9.12;100.00;101159.97;5029082;28;20068;-83
2023/11/16 05:30:52;;;;;;;17.35;16.15;;;;;;;8.88;100.00;101165.56;5028701;28;20045;-83
2023/11/16 05:33:22;;;;;;;18.85;17.65;;;;;;;8.76;100.00;101170.50;5028230;28;20052;-83
2023/11/16 05:35:51;;;;;;;18.15;17.05;;;;;;;8.90;100.00;101167.03;5030132;28;20056;-82
2023/11/16 05:38:18;;;;;;;19.05;17.90;;;;;;;8.59;100.00;101176.97;5030287;28;20132;-82
2023/11/16 05:40:46;;;;;;;19.35;18.20;;;;;;;8.77;100.00;101177.41;5032373;28;20072;-83
2023/11/16 05:43:13;;;;;;;19.20;18.00;;;;;;;9.10;100.00;101190.28;5029966;28;20099;-83
2023/11/16 05:45:40;;;;;;;18.42;17.23;;;;;;;9.39;100.00;101176.19;5030308;28;20041;-83
2023/11/16 05:48:10;;;;;;;18.65;17.55;;;;;;;9.13;100.00;101181.97;5027229;28;20470;-83
2023/11/16 05:50:38;;;;;;;19.33;18.00;;;;;;;9.48;100.00;101180.34;5031264;28;20051;-83
2023/11/16 05:53:08;;;;;;;18.65;17.55;;;;;;;9.05;100.00;101176.78;5032545;28;20045;-82
2023/11/16 05:55:38;;;;;;;17.85;16.75;;;;;;;8.93;100.00;101192.34;5029509;28;20045;-84
2023/11/16 05:58:06;;;;;;;19.90;18.75;;;;;;;9.16;100.00;101202.81;5024684;28;20128;-82
2023/11/16 06:00:36;;;;;;;24.67;23.17;;;;;;;9.89;100.00;101203.63;5025431;28;20060;-82
2023/11/16 06:03:04;;;;;;;23.50;22.10;;;;;;;9.81;100.00;101223.16;5030049;28;20034;-82
2023/11/16 06:05:32;;;;;;;22.90;21.50;;;;;;;10.61;100.00;101231.84;5027609;28;20051;-83
2023/11/16 06:08:00;;;;;;;22.52;21.13;;;;;;;9.86;100.00;101235.84;5032423;28;20049;-83
2023/11/16 06:10:27;;;;;;;22.15;20.65;;;;;;;10.03;100.00;101231.13;5040321;28;20076;-77
2023/11/16 06:12:57;;;;;;;22.17;20.77;;;;;;;10.43;100.00;101237.63;5035177;28;20067;-77
2023/11/16 06:15:28;;;;;;;23.02;21.63;;;;;;;10.68;100.00;101239.84;5036812;28;20096;-77
2023/11/16 06:18:00;;;;;;;22.30;21.00;;;;;;;10.66;100.00;101248.03;5037033;28;20046;-77
2023/11/16 06:20:28;;;;;;;20.17;18.98;;;;;;;10.61;100.00;101241.63;5031295;28;20056;-77
2023/11/16 06:22:55;;;;;;;21.10;19.90;;;;;;;11.37;100.00;101237.16;5035380;28;20052;-77
2023/11/16 06:25:23;;;;;;;23.05;21.65;;;;;;;11.45;100.00;101246.81;5034419;28;20059;-83
2023/11/16 06:28:00;;;;;;;22.92;21.52;;;;;;;11.49;100.00;101239.25;5034645;28;20075;-83
2023/11/16 06:30:31;;;;;;;23.63;22.13;;;;;;;10.37;100.00;101245.53;5033085;28;20060;-77
2023/11/16 06:33:04;;;;;;;22.73;21.33;;;;;;;11.21;100.00;101246.31;5030893;28;20144;-83
2023/11/16 06:35:31;;;;;;;23.85;22.25;;;;;;;11.39;100.00;101251.09;5034547;28;20103;-83
2023/11/16 06:37:58;;;;;;;23.15;21.75;;;;;;;11.29;100.00;101261.28;5035481;28;20056;-82
2023/11/16 06:40:28;;;;;;;22.15;20.75;;;;;;;11.29;100.00;101266.59;5033036;28;20049;-82
2023/11/16 06:42:56;;;;;;;22.15;20.67;;;;;;;11.00;100.00;101267.66;5033119;28;20053;-86
2023/11/16 06:45:24;;;;;;;24.35;22.75;;;;;;;10.99;100.00;101266.84;5030582;28;20052;-83
2023/11/16 06:47:51;;;;;;;21.63;20.23;;;;;;;11.26;100.00;101255.53;5030961;28;20136;-83
2023/11/16 06:50:19;;;;;;;22.77;21.27;;;;;;;12.57;100.00;101259.53;5034719;28;20046;-82
2023/11/16 06:52:47;;;;;;;22.83;21.52;;;;;;;11.37;100.00;101266.41;5030281;28;20045;-83
2023/11/16 06:55:17;;;;;;;23.35;21.95;;;;;;;11.09;100.00;101271.00;5034645;28;20459;-82
2023/11/16 06:57:47;;;;;;;22.80;21.50;;;;;;;11.43;100.00;101272.78;5037540;28;20046;-83
2023/11/16 07:00:21;;;;;;;22.95;21.58;;;;;;;11.85;100.00;101247.78;5033644;28;20426;-84
2023/11/16 07:02:48;;;;;;;23.23;21.73;;;;;;;12.12;100.00;101264.63;5038038;28;20049;-84
2023/11/16 07:05:15;;;;;;;23.25;21.85;;;;;;;11.93;100.00;101261.97;5033697;28;20131;-84
2023/11/16 07:07:42;;;;;;;22.30;20.80;;;;;;;11.99;100.00;101267.28;5036362;28;20049;-83
2023/11/16 07:10:10;;;;;;;22.65;21.15;;;;;;;12.20;100.00;101260.16;5030309;28;20060;-77
2023/11/16 07:12:41;;;;;;;22.20;20.80;;;;;;;11.45;100.00;101260.13;5032227;28;20096;-77
2023/11/16 07:15:11;;;;;;;23.83;22.33;;;;;;;12.66;100.00;101270.00;5032860;28;20168;-77
2023/11/16 07:17:40;;;;;;;23.85;22.35;;;;;;;12.71;100.00;101267.50;5030860;28;20037;-77
2023/11/16 07:20:11;;;;;;;22.75;21.25;;;;;;;12.51;100.00;101281.69;5032291;28;20065;-77
2023/11/16 07:22:38;;;;;;;24.30;22.60;;;;;;;12.46;100.00;101285.97;5033765;28;20050;-78
2023/11/16 07:25:07;;;;;;;24.40;22.70;;;;;;;12.68;100.00;101275.94;5024066;28;20441;-78
2023/11/16 07:27:34;;;;;;;25.20;23.50;;;;;;;11.98;100.00;101280.78;5035892;28;20570;-77
2023/11/16 07:30:03;;;;;;;25.65;24.08;;;;;;;12.79;100.00;101280.66;5032535;28;20076;-77
2023/11/16 07:32:32;;;;;;;25.90;24.40;;;;;;;13.69;100.00;101281.66;5035992;28;20137;-78
2023/11/16 07:34:58;;;;;;;23.13;21.52;;;;;;;11.99;100.00;101296.56;5029455;28;20046;-77
2023/11/16 07:37:27;;;;;;;23.83;22.23;;;;;;;12.32;100.00;101288.66;5032725;28;20037;-77
2023/11/16 07:39:54;;;;;;;24.55;22.95;;;;;;;12.55;100.00;101304.22;5037217;28;20140;-77
2023/11/16 07:42:21;;;;;;;25.92;24.17;;;;;;;13.18;100.00;101300.28;5031486;28;20049;-77
2023/11/16 07:44:48;;;;;;;22.00;20.70;;;;;;;12.47;100.00;101311.63;5033248;28;20057;-77
2023/11/16 07:47:15;;;;;;;22.92;21.40;;;;;;;13.61;100.00;101307.75;5030347;28;20053;-77
2023/11/16 07:49:43;;;;;;;24.58;22.88;;;;;;;12.52;100.00;101320.63;5032702;28;20435;-80
2023/11/16 07:52:14;;;;;;;23.42;21.83;;;;;;;13.07;100.00;101325.72;5035199;28;20056;-76
2023/11/16 07:54:45;;;;;;;23.17;21.58;;;;;;;11.65;100.00;101327.53;5035013;28;20053;-76
2023/11/16 07:57:20;;;;;;;22.65;21.15;;;;;;;12.64;100.00;101309.34;5038205;28;20057;-76
2023/11/16 07:59:47;;;;;;;24.02;22.42;;;;;;;13.95;100.00;101326.09;5032236;28;20649;-80
2023/11/16 08:02:28;;;;;;;23.80;22.20;;;;;;;13.84;100.00;101323.28;5023068;28;20099;-80
2023/11/16 08:05:05;;;;;;;24.70;23.13;;;;;;;14.18;100.00;101328.22;5030593;28;20495;-79
2023/11/16 08:07:32;;;;;;;26.17;24.55;;;;;;;14.63;100.00;101327.34;5031864;28;20055;-79
2023/11/16 08:10:09;;;;;;;23.20;21.60;;;;;;;15.21;100.00;101318.16;5028797;28;20511;-80
2023/11/16 08:12:38;;;;;;;20.88;19.67;;;;;;;14.42;100.00;101321.28;5035753;28;20056;-80
2023/11/16 08:15:07;;;;;;;20.83;19.63;;;;;;;14.95;100.00;101332.59;5033377;28;20081;-77
2023/11/16 08:17:34;;;;;;;21.10;19.80;;;;;;;15.52;100.00;101327.91;5034478;28;20057;-76
2023/11/16 08:20:03;;;;;;;20.42;19.23;;;;;;;15.20;100.00;101332.59;5038582;28;20041;-76
2023/11/16 08:22:33;;;;;;;22.25;20.95;;;;;;;14.40;100.00;101327.88;5031133;28;20510;-76
2023/11/16 08:25:00;;;;;;;23.55;22.20;;;;;;;15.31;100.00;101334.50;5028142;28;20048;-77
2023/11/16 08:27:28;;;;;;;25.10;23.50;;;;;;;14.39;100.00;101326.25;5034870;28;20155;-76
2023/11/16 08:29:55;;;;;;;22.20;20.70;;;;;;;13.67;100.00;101337.09;5035949;28;20084;-76
2023/11/16 08:32:22;;;;;;;22.42;21.02;;;;;;;14.71;100.00;101320.91;5032057;28;20052;-76
2023/11/16 08:34:49;;;;;;;27.25;25.30;;;;;;;15.19;100.00;101322.91;5030486;28;20056;-76
2023/11/16 08:37:17;;;;;;;23.95;22.55;;;;;;;15.56;100.00;101329.91;5031741;28;20442;-76
2023/11/16 08:39:47;;;;;;;22.13;20.63;;;;;;;15.40;100.00;101322.50;5030449;28;20144;-76
2023/11/16 08:42:15;;;;;;;22.25;20.75;;;;;;;15.04;100.00;101318.75;5031540;28;20139;-76
2023/11/16 08:44:44;;;;;;;20.63;19.23;;;;;;;15.41;100.00;101317.97;5034573;28;20490;-76
2023/11/16 08:47:14;;;;;;;25.30;23.70;;;;;;;15.75;100.00;101309.31;5028561;28;20426;-76
2023/11/16 08:49:42;;;;;;;25.17;23.38;;;;;;;15.71;100.00;101310.81;5032821;28;20072;-76
2023/11/16 08:52:10;;;;;;;22.23;20.73;;;;;;;14.49;100.00;101312.38;5030525;28;20316;-76
2023/11/16 08:54:39;;;;;;;22.05;20.65;;;;;;;16.09;100.00;101304.31;5028449;28;20041;-76
2023/11/16 08:57:06;;;;;;;21.45;20.15;;;;;;;16.26;100.00;101309.88;5028769;28;20049;-82
2023/11/16 08:59:35;;;;;;;22.60;21.20;;;;;;;15.91;100.00;101299.84;5027181;28;20057;-81
2023/11/16 09:02:02;;;;;;;22.02;20.63;;;;;;;15.91;100.00;101296.34;5030351;28;20060;-82
2023/11/16 09:04:30;;;;;;;21.80;20.40;;;;;;;16.58;100.00;101290.78;5028251;28;20112;-82
2023/11/16 09:06:58;;;;;;;21.50;20.10;;;;;;;15.79;100.00;101307.00;5032481;28;20057;-82
2023/11/16 09:09:37;;;;;;;23.08;21.48;;;;;;;15.86;100.00;101297.03;5031148;28;20051;-83
2023/11/16 09:12:12;;;;;;;21.38;19.88;;;;;;;16.20;100.00;101292.84;5027480;28;20519;-83
2023/11/16 09:14:40;;;;;;;21.95;20.35;;;;;;;17.55;100.00;101290.25;5028011;28;20048;-84
2023/11/16 09:17:17;;;;;;;23.10;21.60;;;;;;;15.47;100.00;101290.31;5032094;28;20139;-76
2023/11/16 09:19:50;;;;;;;22.75;21.35;;;;;;;16.28;100.00;101291.69;5028629;28;20049;-76
2023/11/16 09:22:17;;;;;;;24.40;22.80;;;;;;;16.39;100.00;101284.72;5033100;28;20049;-75
2023/11/16 09:24:44;;;;;;;22.75;21.25;;;;;;;17.16;100.00;101276.59;5032315;28;20064;-76
2023/11/16 09:27:15;;;;;;;22.05;20.60;;;;;;;16.77;100.00;101278.97;5027499;28;20049;-75
2023/11/16 09:29:42;;;;;;;21.17;19.88;;;;;;;16.62;100.00;101268.66;5030723;28;20695;-75
2023/11/16 09:32:12;;;;;;;20.92;19.73;;;;;;;17.36;100.00;101278.88;5031626;28;20084;-76
2023/11/16 09:34:39;;;;;;;21.45;20.15;;;;;;;17.57;100.00;101275.53;5034753;28;20049;-82
2023/11/16 09:37:07;;;;;;;23.63;22.20;;;;;;;17.07;100.00;101275.34;5033590;28;20507;-83
2023/11/16 09:39:33;;;;;;;22.45;21.05;;;;;;;16.16;100.00;101264.06;5032875;28;20045;-84
2023/11/16 09:42:07;;;;;;;22.10;20.70;;;;;;;15.86;100.00;101270.25;5033904;28;20049;-85
2023/11/16 09:44:40;;;;;;;23.17;21.48;;;;;;;16.26;100.00;101275.84;5033311;28;20045;-83
2023/11/16 09:47:23;;;;;;;21.17;19.77;;;;;;;16.93;100.00;101264.03;5038180;28;20041;-83
2023/11/16 09:49:56;;;;;;;18.77;17.50;;;;;;;17.83;100.00;101259.97;5039060;28;20423;-82
2023/11/16 09:52:24;;;;;;;22.02;20.63;;;;;;;17.76;100.00;101268.13;5039354;28;20107;-83
2023/11/16 09:54:52;;;;;;;25.15;23.45;;;;;;;16.82;100.00;101244.19;5033093;28;20060;-84
2023/11/16 09:57:21;;;;;;;25.60;23.90;;;;;;;16.94;100.00;101253.06;5033837;28;20053;-83
2023/11/16 09:59:55;;;;;;;25.85;24.05;;;;;;;16.80;100.00;101254.34;5037861;28;20131;-81
2023/11/16 10:02:25;;;;;;;22.90;21.40;;;;;;;17.05;100.00;101254.09;5029157;28;20137;-75
2023/11/16 10:04:53;;;;;;;22.60;21.10;;;;;;;17.11;100.00;101252.34;5033881;28;20495;-75
2023/11/16 10:07:26;;;;;;;22.00;20.60;;;;;;;17.50;100.00;101241.84;5037511;28;20056;-75
2023/11/16 10:09:53;;;;;;;;;;;;;;;16.11;100.00;101247.84;5034638;28;20083;-75
2023/11/16 10:12:21;;;;;;;22.50;21.02;;;;;;;16.79;100.00;101249.22;5045707;28;19921;-75
2023/11/16 10:14:55;;;;;;;22.30;20.80;;;;;;;17.05;100.00;101248.72;5034181;28;20049;-75
2023/11/16 10:17:25;;;;;;;26.23;24.63;;;;;;;16.95;100.00;101248.50;5039233;28;20045;-76
2023/11/16 10:19:52;;;;;;;25.73;24.02;;;;;;;16.75;100.00;101246.16;5035514;28;20510;-76
2023/11/16 10:22:19;;;;;;;24.95;23.15;;;;;;;17.06;100.00;101246.84;5033330;28;20414;-75
2023/11/16 10:24:50;;;;;;;21.98;19.77;;;;;;;16.83;100.00;101245.84;5033078;28;20045;-76
2023/11/16 10:27:17;;;;;;;25.55;23.80;;;;;;;16.95;100.00;101227.03;5027929;28;20475;-76
2023/11/16 10:29:46;;;;;;;22.17;20.63;;;;;;;17.32;100.00;101243.66;5036015;28;20120;-75
2023/11/16 10:32:16;;;;;;;26.00;24.20;;;;;;;16.58;100.00;101229.97;5037280;28;20129;-76
2023/11/16 10:34:44;;;;;;;23.77;22.17;;;;;;;16.20;100.00;101236.56;5030039;28;20045;-76
2023/11/16 10:37:13;;;;;;;25.58;23.77;;;;;;;17.60;100.00;101242.84;5030732;28;20485;-84
2023/11/16 10:39:43;;;;;;;24.85;23.15;;;;;;;16.86;100.00;101228.47;5029691;28;20046;-84
2023/11/16 10:42:11;;;;;;;25.10;23.40;;;;;;;17.74;100.00;101221.06;5031434;28;20135;-83
2023/11/16 10:44:42;;;;;;;25.02;23.33;;;;;;;16.92;100.00;101232.88;5029685;28;20041;-82
2023/11/16 10:47:11;;;;;;;25.30;23.70;;;;;;;16.58;100.00;101227.28;5031362;28;20055;-83
2023/11/16 10:49:40;;;;;;;22.67;21.33;;;;;;;17.95;100.00;101224.97;5031457;28;20057;-85
2023/11/16 10:52:07;;;;;;;23.73;22.33;;;;;;;17.16;100.00;101237.16;5033351;28;20057;-86
2023/11/16 10:54:40;;;;;;;20.77;19.38;;;;;;;17.23;100.00;101238.88;5032442;28;20050;-82
2023/11/16 10:57:07;;;;;;;20.77;19.35;;;;;;;16.23;100.00;101224.56;5030153;28;20495;-87
2023/11/16 10:59:37;;;;;;;21.75;20.35;;;;;;;17.55;100.00;101242.75;5038751;28;20422;-75
2023/11/16 11:02:10;;;;;;;20.83;19.42;;;;;;;17.43;100.00;101235.78;5036601;28;20045;-86
2023/11/16 11:04:38;;;;;;;20.20;18.80;;;;;;;17.09;100.00;101243.69;5034137;28;20044;-84
2023/11/16 11:07:09;;;;;;;21.02;19.52;;;;;;;17.83;100.00;101247.34;5037052;28;20045;-85
2023/11/16 11:09:42;;;;;;;19.27;17.92;;;;;;;17.79;100.00;101239.97;5035818;28;20049;-84
2023/11/16 11:12:13;;;;;;;19.55;18.25;;;;;;;17.89;100.00;101234.81;5032888;28;20104;-84